Time;durP1;ratioP1;P1;durP2;ratioP2;P2;SDS_P1;SDS_P2;PMS_P1;PMS_P2;Temp;Humidity;BMP_temperature;BMP_pressure;BME280_temperature;BME280_humidity;BME280_pressure;Samples;Min_cycle;Max_cycle;Signal;HPM_P1;HPM_P2
2022/01/28 00:03:00;;;;;;;337.08;144.80;;;-0.80;99.90;;;;;;5063800;28;20344;-74
2022/01/28 00:05:00;;;;;;;414.50;165.27;;;-0.80;99.90;;;;;;5055499;28;20044;-74
2022/01/28 00:07:26;;;;;;;389.48;155.73;;;-0.80;99.90;;;;;;5063673;28;20028;-74
2022/01/28 00:09:52;;;;;;;391.50;159.82;;;-0.80;99.90;;;;;;5063403;28;20462;-73
2022/01/28 00:12:18;;;;;;;415.58;173.68;;;-0.90;99.90;;;;;;5062564;28;20020;-74
2022/01/28 00:20:37;;;;;;;428.38;184.38;;;-0.90;99.90;;;;;;5063011;28;20459;-74
2022/01/28 00:36:57;;;;;;;346.95;152.52;;;-1.20;99.90;;;;;;5063985;28;20085;-74
2022/01/28 00:39:18;;;;;;;288.90;126.13;;;-1.30;99.90;;;;;;5063429;28;20387;-74
2022/01/28 00:41:44;;;;;;;265.17;119.30;;;-1.30;99.90;;;;;;5067549;28;20054;-74
2022/01/28 00:44:10;;;;;;;272.83;120.07;;;-1.30;99.90;;;;;;5073727;28;20077;-74
2022/01/28 00:46:35;;;;;;;271.05;120.63;;;-1.30;99.90;;;;;;5068471;28;20486;-74
2022/01/28 00:49:01;;;;;;;282.15;126.15;;;-1.30;99.90;;;;;;5062036;28;20032;-74
2022/01/28 00:51:27;;;;;;;283.35;128.32;;;-1.20;99.90;;;;;;5061193;28;20035;-73
2022/01/28 00:53:53;;;;;;;279.83;123.55;;;-1.30;99.90;;;;;;5062556;28;20070;-73
2022/01/28 00:56:18;;;;;;;289.60;131.48;;;-1.30;99.90;;;;;;5061635;28;20360;-74
2022/01/28 00:58:44;;;;;;;298.25;135.48;;;-1.30;99.90;;;;;;5062027;28;20021;-74
2022/01/28 01:01:10;;;;;;;283.48;131.15;;;-1.30;99.90;;;;;;5062627;28;20036;-74
2022/01/28 01:03:36;;;;;;;292.02;129.13;;;-1.30;99.90;;;;;;5061278;28;20021;-74
2022/01/28 01:06:01;;;;;;;296.10;131.07;;;-1.30;99.90;;;;;;5061923;28;20078;-74
2022/01/28 01:08:27;;;;;;;296.20;130.00;;;-1.30;99.90;;;;;;5062489;28;20090;-73
2022/01/28 01:10:54;;;;;;;306.50;134.63;;;-1.30;99.90;;;;;;5061085;28;20025;-74
2022/01/28 01:13:20;;;;;;;328.15;143.77;;;-1.30;99.90;;;;;;5061911;28;20104;-74
2022/01/28 01:15:51;;;;;;;334.63;144.25;;;-1.20;99.90;;;;;;5044692;28;20101;-73
2022/01/28 01:18:22;;;;;;;263.00;117.30;;;-1.20;99.90;;;;;;5060864;28;20380;-73
2022/01/28 01:23:28;;;;;;;250.38;111.18;;;-1.20;99.90;;;;;;5062891;28;20101;-73
2022/01/28 01:28:36;;;;;;;264.10;108.82;;;-1.30;99.90;;;;;;5064042;28;20048;-73
2022/01/28 01:31:05;;;;;;;252.40;108.90;;;-1.20;99.90;;;;;;5065437;28;20028;-74
2022/01/28 01:33:37;;;;;;;256.77;111.90;;;-1.20;99.90;;;;;;5064332;28;20057;-74
2022/01/28 01:36:03;;;;;;;239.88;103.25;;;-1.20;99.90;;;;;;5064780;28;20021;-73
2022/01/28 01:38:33;;;;;;;227.77;100.70;;;-1.30;99.90;;;;;;5066292;28;20033;-74
2022/01/28 01:41:02;;;;;;;228.63;102.07;;;-1.20;99.90;;;;;;5064746;28;20120;-74
2022/01/28 01:53:57;;;;;;;239.75;105.65;;;-1.20;99.90;;;;;;5066122;28;20035;-73
2022/01/28 01:56:24;;;;;;;225.00;99.05;;;-1.20;99.90;;;;;;5064837;28;20045;-74
2022/01/28 01:58:50;;;;;;;220.82;95.22;;;-1.20;99.90;;;;;;5063993;28;20078;-74
2022/01/28 02:01:16;;;;;;;238.40;102.50;;;-1.20;99.90;;;;;;5064100;28;20107;-73
2022/01/28 02:03:42;;;;;;;272.55;120.65;;;-1.20;99.90;;;;;;5064577;28;20016;-74
2022/01/28 02:06:08;;;;;;;298.67;134.75;;;-1.10;99.90;;;;;;5065499;28;20063;-74
2022/01/28 02:08:35;;;;;;;274.50;117.93;;;-1.20;99.90;;;;;;5063481;28;20406;-74
2022/01/28 02:11:01;;;;;;;253.65;114.10;;;-1.10;99.90;;;;;;5064300;28;20048;-74
2022/01/28 02:13:29;;;;;;;264.38;111.97;;;-1.10;99.90;;;;;;5065425;28;20096;-74
2022/01/28 02:15:57;;;;;;;230.50;98.43;;;-1.10;99.90;;;;;;5063595;28;20025;-73
2022/01/28 02:18:24;;;;;;;222.38;92.97;;;-1.10;99.90;;;;;;5064077;28;20016;-75
2022/01/28 02:20:52;;;;;;;235.63;98.03;;;-1.10;99.90;;;;;;5065757;28;20025;-74
2022/01/28 02:23:20;;;;;;;237.75;100.80;;;-1.10;99.90;;;;;;5063603;28;20080;-74
2022/01/28 02:25:46;;;;;;;283.98;109.80;;;-1.10;99.90;;;;;;5063954;28;20045;-74
2022/01/28 02:28:15;;;;;;;229.15;97.30;;;-1.10;99.90;;;;;;5065320;28;20025;-74
2022/01/28 02:30:41;;;;;;;214.60;95.75;;;-1.10;99.90;;;;;;5063723;28;20485;-74
2022/01/28 02:33:19;;;;;;;219.00;94.82;;;-1.10;99.90;;;;;;5063082;28;20067;-74
2022/01/28 02:35:47;;;;;;;213.38;93.50;;;-1.10;99.90;;;;;;5064921;28;20079;-75
2022/01/28 02:38:15;;;;;;;228.05;98.25;;;-1.10;99.90;;;;;;5062865;28;20096;-75
2022/01/28 02:40:46;;;;;;;237.45;101.95;;;-1.10;99.90;;;;;;5064233;28;20024;-75
2022/01/28 02:45:46;;;;;;;274.42;117.63;;;-1.00;99.90;;;;;;5063930;28;20033;-74
2022/01/28 02:48:19;;;;;;;268.65;116.00;;;-1.00;99.90;;;;;;5063208;28;20024;-75
2022/01/28 02:53:40;;;;;;;263.58;113.95;;;-0.90;99.90;;;;;;5064538;28;20378;-74
2022/01/28 02:56:32;;;;;;;248.95;108.07;;;-0.80;99.90;;;;;;5064583;28;20025;-74
2022/01/28 02:58:58;;;;;;;;;;;-0.80;99.90;;;;;;5063280;28;20387;-75
2022/01/28 03:01:24;;;;;;;254.35;107.72;;;-0.70;99.90;;;;;;5063555;28;19958;-75
2022/01/28 03:03:51;;;;;;;268.55;119.78;;;-0.70;99.90;;;;;;5064610;28;20468;-75
2022/01/28 03:06:19;;;;;;;272.23;114.60;;;-0.60;99.90;;;;;;5062362;28;20029;-75
2022/01/28 03:08:59;;;;;;;247.55;106.32;;;-0.60;99.90;;;;;;5063371;28;20021;-75
2022/01/28 03:16:52;;;;;;;239.60;103.65;;;-0.50;99.90;;;;;;5062809;28;20040;-75
2022/01/28 03:19:21;;;;;;;211.15;91.95;;;-0.40;99.90;;;;;;5062211;28;20787;-74
2022/01/28 03:21:58;;;;;;;213.27;90.60;;;-0.40;99.90;;;;;;5062638;28;20024;-75
2022/01/28 03:24:26;;;;;;;209.90;91.50;;;-0.40;99.90;;;;;;5063174;28;20049;-74
2022/01/28 03:26:58;;;;;;;202.32;89.80;;;-0.40;99.90;;;;;;5061885;28;20055;-75
2022/01/28 03:29:24;;;;;;;197.25;88.53;;;-0.30;99.90;;;;;;5063203;28;20127;-75
2022/01/28 03:31:50;;;;;;;214.65;85.75;;;-0.30;99.90;;;;;;5064099;28;20108;-74
2022/01/28 03:34:16;;;;;;;198.27;88.15;;;-0.30;99.90;;;;;;5061893;28;20052;-75
2022/01/28 03:36:42;;;;;;;189.50;84.45;;;-0.30;99.90;;;;;;5063270;28;20029;-75
2022/01/28 03:39:10;;;;;;;232.20;100.90;;;-0.20;99.90;;;;;;5063682;28;20017;-73
2022/01/28 03:41:36;;;;;;;211.88;89.63;;;-0.20;99.90;;;;;;5061616;28;20017;-74
2022/01/28 03:44:02;;;;;;;178.10;79.63;;;-0.20;99.90;;;;;;5062854;28;20356;-74
2022/01/28 03:46:30;;;;;;;183.73;81.05;;;-0.10;99.90;;;;;;5063551;28;20041;-74
2022/01/28 03:48:56;;;;;;;178.18;80.38;;;-0.10;99.90;;;;;;5061516;28;20025;-75
2022/01/28 03:51:22;;;;;;;187.93;77.82;;;-0.10;99.90;;;;;;5062455;28;20095;-74
2022/01/28 03:53:49;;;;;;;176.35;79.32;;;-0.10;99.90;;;;;;5063217;28;20458;-74
2022/01/28 03:56:15;;;;;;;176.73;82.05;;;0.00;99.90;;;;;;5061174;28;20021;-74
2022/01/28 03:58:41;;;;;;;175.68;79.35;;;0.00;99.90;;;;;;5062804;28;20103;-75
2022/01/28 04:01:15;;;;;;;205.73;88.72;;;0.10;99.90;;;;;;5063165;28;20076;-74
2022/01/28 04:04:23;;;;;;;224.80;95.03;;;0.10;99.90;;;;;;5062639;28;20025;-76
2022/01/28 04:11:57;;;;;;;227.02;98.95;;;0.20;99.90;;;;;;5063453;28;20114;-74
2022/01/28 04:19:33;;;;;;;196.68;90.60;;;0.30;99.90;;;;;;5063531;28;20074;-74
2022/01/28 04:21:59;;;;;;;186.95;83.90;;;0.30;99.90;;;;;;5061844;28;20025;-74
2022/01/28 04:24:25;;;;;;;187.93;82.05;;;0.30;99.90;;;;;;5061829;28;20405;-74
2022/01/28 04:26:51;;;;;;;173.15;79.93;;;0.30;99.90;;;;;;5063320;28;20526;-74
2022/01/28 04:29:18;;;;;;;211.95;90.05;;;0.40;99.90;;;;;;5061187;28;20025;-74
2022/01/28 04:31:46;;;;;;;188.23;85.45;;;0.40;99.90;;;;;;5062059;28;20017;-74
2022/01/28 04:34:14;;;;;;;195.57;86.15;;;0.40;99.90;;;;;;5062901;28;20086;-74
2022/01/28 04:42:16;;;;;;;194.40;87.53;;;0.40;99.90;;;;;;5061453;28;20029;-73
2022/01/28 04:45:22;;;;;;;186.43;82.85;;;0.40;99.90;;;;;;5061234;28;20033;-74
2022/01/28 04:48:16;;;;;;;220.52;101.18;;;0.40;99.90;;;;;;5058122;28;20033;-74
2022/01/28 04:50:41;;;;;;;230.13;98.50;;;0.40;99.90;;;;;;5059782;28;20029;-75
2022/01/28 05:12:28;;;;;;;218.38;100.30;;;0.40;99.90;;;;;;4995405;28;20029;-74
2022/01/28 05:27:55;;;;;;;242.68;117.07;;;0.40;99.90;;;;;;5034846;28;20044;-74
2022/01/28 05:30:20;;;;;;;380.70;171.82;;;0.30;99.90;;;;;;5034612;28;20037;-74
2022/01/28 05:32:46;;;;;;;405.40;190.57;;;0.40;99.90;;;;;;5034323;28;20029;-74
2022/01/28 05:35:12;;;;;;;438.58;205.10;;;0.40;99.90;;;;;;5084437;28;20044;-74
2022/01/28 05:37:38;;;;;;;390.63;182.85;;;0.50;99.90;;;;;;5096848;28;20454;-74
2022/01/28 05:40:04;;;;;;;365.33;169.20;;;0.50;99.90;;;;;;5096782;28;20021;-74
2022/01/28 05:42:30;;;;;;;355.05;169.02;;;0.60;99.90;;;;;;5097037;28;20031;-74
2022/01/28 05:44:56;;;;;;;350.60;160.68;;;0.60;99.90;;;;;;5097155;28;20032;-74
2022/01/28 05:47:24;;;;;;;328.83;153.20;;;0.60;99.90;;;;;;5096641;28;20032;-74
2022/01/28 05:49:50;;;;;;;287.25;131.45;;;0.70;99.90;;;;;;5096936;28;20343;-74
2022/01/28 05:52:16;;;;;;;309.80;140.68;;;0.70;99.90;;;;;;5096797;28;20063;-74
2022/01/28 05:54:42;;;;;;;353.15;163.73;;;0.70;99.90;;;;;;5096069;28;20055;-74
2022/01/28 05:57:08;;;;;;;484.13;216.23;;;0.70;99.90;;;;;;5096775;28;20059;-74
2022/01/28 05:59:33;;;;;;;426.40;192.55;;;0.80;99.90;;;;;;5096662;28;20020;-74
2022/01/28 06:01:59;;;;;;;425.17;184.05;;;0.80;99.90;;;;;;5096395;28;20091;-73
2022/01/28 06:04:25;;;;;;;359.98;154.57;;;0.80;99.90;;;;;;5096595;28;20027;-75
2022/01/28 06:06:51;;;;;;;329.20;153.82;;;0.90;99.90;;;;;;5096378;28;20385;-74
2022/01/28 06:09:17;;;;;;;361.00;164.13;;;1.00;99.90;;;;;;5096215;28;20024;-73
2022/01/28 06:11:45;;;;;;;376.92;172.45;;;1.00;99.90;;;;;;5096332;28;20031;-74
2022/01/28 06:14:11;;;;;;;392.05;181.45;;;1.10;99.90;;;;;;5093455;28;20028;-74
2022/01/28 06:16:37;;;;;;;364.02;160.77;;;1.10;99.90;;;;;;5095269;28;20032;-74
2022/01/28 06:19:03;;;;;;;449.80;205.50;;;1.10;99.90;;;;;;5095797;28;20031;-74
2022/01/28 06:21:29;;;;;;;345.60;160.52;;;1.20;99.90;;;;;;5095718;28;20023;-74
2022/01/28 06:23:55;;;;;;;327.90;155.05;;;1.10;99.90;;;;;;5095426;28;20024;-74
2022/01/28 06:26:22;;;;;;;416.98;192.90;;;1.10;99.90;;;;;;5075850;28;20094;-74
2022/01/28 06:28:48;;;;;;;885.53;350.38;;;1.20;99.90;;;;;;5075614;28;20083;-74
2022/01/28 06:31:13;;;;;;;927.25;384.60;;;1.20;99.90;;;;;;5075560;28;20059;-75
2022/01/28 06:33:39;;;;;;;843.60;344.10;;;1.20;99.90;;;;;;5075769;28;20127;-73
2022/01/28 06:36:05;;;;;;;852.38;378.05;;;1.20;99.90;;;;;;5075130;28;20467;-73
2022/01/28 06:38:33;;;;;;;799.03;375.20;;;1.20;99.90;;;;;;5075502;28;20163;-73
2022/01/28 06:40:59;;;;;;;508.25;232.15;;;1.20;99.90;;;;;;5075680;28;20025;-74
2022/01/28 06:43:24;;;;;;;582.75;265.27;;;1.20;99.90;;;;;;5074996;28;20020;-73
2022/01/28 06:45:50;;;;;;;485.20;223.82;;;1.20;99.90;;;;;;5075601;28;20054;-74
2022/01/28 06:48:16;;;;;;;402.88;191.70;;;1.20;99.90;;;;;;5057769;28;20028;-74
2022/01/28 06:50:45;;;;;;;533.80;239.95;;;1.10;99.90;;;;;;5075143;28;20032;-74
2022/01/28 06:53:14;;;;;;;464.40;212.95;;;1.20;99.90;;;;;;5075694;28;20199;-74
2022/01/28 06:55:40;;;;;;;412.63;192.25;;;1.20;99.90;;;;;;5075652;28;20039;-74
2022/01/28 06:58:07;;;;;;;554.25;244.15;;;1.20;99.90;;;;;;5074957;28;20154;-74
2022/01/28 07:00:37;;;;;;;561.38;254.75;;;1.20;99.90;;;;;;5074980;28;20123;-74
2022/01/28 07:03:10;;;;;;;552.20;250.10;;;1.20;99.90;;;;;;5074806;28;20470;-74
2022/01/28 07:05:37;;;;;;;594.78;264.13;;;1.20;99.90;;;;;;5074780;28;20115;-74
2022/01/28 07:08:04;;;;;;;714.92;319.80;;;1.30;99.90;;;;;;5075184;28;20024;-74
2022/01/28 07:10:30;;;;;;;446.80;200.88;;;1.30;99.90;;;;;;5074337;28;20033;-74
2022/01/28 07:12:56;;;;;;;538.22;247.60;;;1.30;99.90;;;;;;5074745;28;20035;-74
2022/01/28 07:15:26;;;;;;;454.98;204.55;;;1.30;99.90;;;;;;5074974;28;20107;-73
2022/01/28 07:17:58;;;;;;;330.38;142.63;;;1.40;99.90;;;;;;5074302;28;20078;-73
2022/01/28 07:20:24;;;;;;;270.38;122.28;;;1.40;99.90;;;;;;5074750;28;20558;-74
2022/01/28 07:22:50;;;;;;;240.05;108.70;;;1.50;99.90;;;;;;5074511;28;20100;-74
2022/01/28 07:25:16;;;;;;;219.57;97.15;;;1.50;99.90;;;;;;5073592;28;20491;-74
2022/01/28 07:27:42;;;;;;;278.10;131.38;;;1.50;99.90;;;;;;5074230;28;20064;-74
2022/01/28 07:30:09;;;;;;;651.20;262.95;;;1.50;99.90;;;;;;5074396;28;20397;-74
2022/01/28 07:32:35;;;;;;;467.50;208.15;;;1.50;99.90;;;;;;5074376;28;20074;-74
2022/01/28 07:35:01;;;;;;;273.85;128.50;;;1.50;99.90;;;;;;5074608;28;20040;-74
2022/01/28 07:37:27;;;;;;;244.55;105.35;;;1.50;99.90;;;;;;5074572;28;20032;-74
2022/01/28 07:39:53;;;;;;;236.02;104.93;;;1.60;99.90;;;;;;5073843;28;20024;-74
2022/01/28 07:42:19;;;;;;;219.13;95.75;;;1.60;99.90;;;;;;5074209;28;20104;-74
2022/01/28 07:44:44;;;;;;;348.83;163.40;;;1.60;99.90;;;;;;5074305;28;20032;-74
2022/01/28 07:47:11;;;;;;;265.80;120.07;;;1.60;99.90;;;;;;5074021;28;20021;-73
2022/01/28 07:49:37;;;;;;;249.75;113.65;;;1.70;99.90;;;;;;5073998;28;20490;-74
2022/01/28 07:52:03;;;;;;;280.50;121.78;;;1.70;99.90;;;;;;5073949;28;20035;-73
2022/01/28 07:54:29;;;;;;;257.15;113.50;;;1.70;99.90;;;;;;5073630;28;20471;-74
2022/01/28 07:56:55;;;;;;;242.27;104.30;;;1.70;99.90;;;;;;5074141;28;20033;-73
2022/01/28 07:59:21;;;;;;;199.27;94.00;;;1.70;99.90;;;;;;5073817;28;20024;-74
2022/01/28 08:01:48;;;;;;;197.43;94.68;;;1.70;99.90;;;;;;5073899;28;20386;-74
2022/01/28 08:04:14;;;;;;;191.55;91.70;;;1.70;99.90;;;;;;5074232;28;20020;-74
2022/01/28 08:06:40;;;;;;;235.45;106.18;;;1.70;99.90;;;;;;5073739;28;20040;-73
2022/01/28 08:09:06;;;;;;;236.27;111.15;;;1.80;99.90;;;;;;5073680;28;20029;-73
2022/01/28 08:11:34;;;;;;;244.13;112.72;;;1.80;99.90;;;;;;5074020;28;20056;-74
2022/01/28 08:13:59;;;;;;;201.60;94.25;;;1.80;99.90;;;;;;5073658;28;20020;-73
2022/01/28 08:16:25;;;;;;;173.20;84.03;;;1.90;99.90;;;;;;5073929;28;20504;-75
2022/01/28 08:18:51;;;;;;;187.02;84.97;;;2.00;99.90;;;;;;5055765;28;20029;-75
2022/01/28 08:21:17;;;;;;;202.13;93.50;;;2.10;99.90;;;;;;5073501;28;20451;-75
2022/01/28 08:23:43;;;;;;;200.40;95.20;;;2.20;99.90;;;;;;5073204;28;20025;-75
2022/01/28 08:26:09;;;;;;;173.95;81.90;;;2.30;99.90;;;;;;5073773;28;20052;-75
2022/01/28 08:28:35;;;;;;;194.38;82.93;;;2.30;99.90;;;;;;5073607;28;20028;-75
2022/01/28 08:31:01;;;;;;;132.02;55.72;;;2.40;99.90;;;;;;5073865;28;20138;-75
2022/01/28 08:33:28;;;;;;;100.85;42.60;;;2.30;99.90;;;;;;5073492;28;20030;-75
2022/01/28 08:35:55;;;;;;;106.97;47.05;;;2.30;99.90;;;;;;5054461;28;20421;-75
2022/01/28 08:38:36;;;;;;;133.00;52.25;;;2.20;99.90;;;;;;5073691;28;20058;-75
2022/01/28 08:41:02;;;;;;;142.73;57.33;;;2.20;99.90;;;;;;5073778;28;20031;-75
2022/01/28 08:43:28;;;;;;;137.27;55.20;;;2.10;99.90;;;;;;5073236;28;20032;-75
2022/01/28 08:45:55;;;;;;;132.10;52.78;;;2.10;99.90;;;;;;5072714;28;20371;-75
2022/01/28 08:48:21;;;;;;;129.98;54.45;;;2.10;99.90;;;;;;5073432;28;20033;-75
2022/01/28 08:50:47;;;;;;;124.78;56.35;;;2.10;99.90;;;;;;5073784;28;20020;-75
2022/01/28 08:53:13;;;;;;;140.77;60.92;;;2.10;99.90;;;;;;5073623;28;20100;-75
2022/01/28 08:55:39;;;;;;;160.30;67.38;;;2.10;99.90;;;;;;5073161;28;20074;-75
2022/01/28 08:58:07;;;;;;;119.30;54.55;;;2.10;99.90;;;;;;5072706;28;20036;-74
2022/01/28 09:00:33;;;;;;;117.85;53.47;;;2.20;99.90;;;;;;5073334;28;20046;-75
2022/01/28 09:02:58;;;;;;;146.57;65.35;;;2.20;99.90;;;;;;5073157;28;20025;-74
2022/01/28 09:05:25;;;;;;;186.35;87.25;;;2.30;99.90;;;;;;5073123;28;20067;-75
2022/01/28 09:07:51;;;;;;;211.07;95.88;;;2.40;99.90;;;;;;5073880;28;20029;-75
2022/01/28 09:10:18;;;;;;;204.90;89.90;;;2.50;99.90;;;;;;5072922;28;20025;-75
2022/01/28 09:13:10;;;;;;;244.63;103.63;;;2.50;99.90;;;;;;5073896;28;20071;-75
2022/01/28 09:15:41;;;;;;;427.63;139.10;;;2.70;99.90;;;;;;5072834;28;20530;-75
2022/01/28 09:18:09;;;;;;;249.65;104.13;;;2.80;99.90;;;;;;5072895;28;20383;-75
2022/01/28 09:20:36;;;;;;;223.18;90.15;;;3.00;99.90;;;;;;5073307;28;20029;-75
2022/01/28 09:23:03;;;;;;;193.85;86.35;;;3.20;99.90;;;;;;5073288;28;20397;-75
2022/01/28 09:25:29;;;;;;;188.98;84.13;;;3.40;99.90;;;;;;5072465;28;20044;-75
2022/01/28 09:27:56;;;;;;;185.50;82.80;;;3.50;99.90;;;;;;5072957;28;20021;-75
2022/01/28 09:30:22;;;;;;;184.23;87.22;;;3.70;99.90;;;;;;5072975;28;20079;-74
2022/01/28 09:32:48;;;;;;;157.40;76.00;;;3.80;99.90;;;;;;5055171;28;20033;-74
2022/01/28 09:35:13;;;;;;;113.32;58.45;;;3.80;99.90;;;;;;5073249;28;20039;-74
2022/01/28 09:37:39;;;;;;;105.18;54.90;;;3.90;99.90;;;;;;5072966;28;20028;-75
2022/01/28 09:40:07;;;;;;;120.60;60.35;;;4.00;99.90;;;;;;5073410;28;20074;-75
2022/01/28 09:42:37;;;;;;;119.15;60.85;;;4.10;99.90;;;;;;5073442;28;20028;-75
2022/01/28 09:45:07;;;;;;;125.65;64.35;;;4.20;99.90;;;;;;5072764;28;20025;-75
2022/01/28 09:47:33;;;;;;;109.00;56.92;;;4.30;99.90;;;;;;5072813;28;20383;-75
2022/01/28 09:49:59;;;;;;;235.77;102.43;;;4.40;99.90;;;;;;5075013;28;20029;-75
2022/01/28 09:52:25;;;;;;;424.10;189.60;;;4.60;99.90;;;;;;5076009;28;20021;-75
2022/01/28 09:54:51;;;;;;;381.48;182.57;;;4.70;99.90;;;;;;5076232;28;20454;-75
2022/01/28 09:57:18;;;;;;;156.70;77.13;;;4.80;99.90;;;;;;5076479;28;20103;-74
2022/01/28 09:59:45;;;;;;;118.03;57.33;;;4.90;99.90;;;;;;5075841;28;20025;-75
2022/01/28 10:02:10;;;;;;;96.55;46.88;;;5.00;99.90;;;;;;5076477;28;20031;-74
2022/01/28 10:04:36;;;;;;;75.35;36.83;;;5.10;99.90;;;;;;5076371;28;20029;-75
2022/01/28 10:07:13;;;;;;;65.07;33.80;;;5.10;99.90;;;;;;5075604;28;20106;-75
2022/01/28 10:09:56;;;;;;;68.35;33.53;;;5.30;99.90;;;;;;5076064;28;20032;-75
2022/01/28 10:15:19;;;;;;;72.97;34.13;;;5.50;99.90;;;;;;5013994;28;20038;-75
2022/01/28 10:17:58;;;;;;;67.28;33.60;;;5.60;99.90;;;;;;5014044;28;20033;-76
2022/01/28 10:20:26;;;;;;;67.25;31.80;;;5.60;99.90;;;;;;5013658;28;20042;-75
2022/01/28 10:22:58;;;;;;;61.22;28.90;;;5.70;99.90;;;;;;5013901;28;20085;-75
2022/01/28 10:25:32;;;;;;;99.32;41.92;;;5.70;99.90;;;;;;5013674;28;20124;-76
2022/01/28 10:28:01;;;;;;;51.38;25.40;;;5.70;99.90;;;;;;5013560;28;20131;-76
2022/01/28 10:30:28;;;;;;;63.47;29.75;;;5.70;99.90;;;;;;5014205;28;20491;-76
2022/01/28 10:33:15;;;;;;;142.40;60.85;;;5.70;99.90;;;;;;5013865;28;20072;-75
2022/01/28 10:36:04;;;;;;;173.07;73.93;;;5.80;99.90;;;;;;5013753;28;20388;-76
2022/01/28 10:38:38;;;;;;;133.15;55.67;;;5.80;99.90;;;;;;5007605;28;20031;-75
2022/01/28 10:41:20;;;;;;;218.73;84.20;;;5.80;99.90;;;;;;5010913;28;20030;-76
2022/01/28 10:43:46;;;;;;;134.50;54.55;;;5.80;99.90;;;;;;4999755;28;20026;-76
2022/01/28 10:46:15;;;;;;;67.53;29.38;;;5.90;99.90;;;;;;4996255;28;20061;-75
2022/01/28 10:48:50;;;;;;;85.60;35.38;;;6.00;99.90;;;;;;4996101;28;20050;-76
2022/01/28 10:51:18;;;;;;;87.35;42.80;;;6.10;99.90;;;;;;5014418;28;20033;-76
2022/01/28 10:54:02;;;;;;;89.03;43.75;;;6.20;99.90;;;;;;5057932;28;20025;-76
2022/01/28 10:56:28;;;;;;;71.45;31.85;;;6.20;99.90;;;;;;5054794;28;20379;-76
2022/01/28 10:58:55;;;;;;;46.90;23.05;;;6.40;99.90;;;;;;5055343;28;20474;-76
2022/01/28 11:01:24;;;;;;;51.45;26.30;;;6.40;99.90;;;;;;5054605;28;20155;-76
2022/01/28 11:03:50;;;;;;;51.78;25.63;;;6.50;99.90;;;;;;5059906;28;20074;-75
2022/01/28 11:06:16;;;;;;;44.92;22.60;;;6.50;99.90;;;;;;5075164;28;20123;-76
2022/01/28 11:08:42;;;;;;;47.88;23.70;;;6.60;99.90;;;;;;5074780;28;20028;-75
2022/01/28 11:11:08;;;;;;;62.33;29.33;;;6.50;99.90;;;;;;5058607;28;20159;-75
2022/01/28 11:13:36;;;;;;;63.83;29.50;;;6.50;99.90;;;;;;5054735;28;20025;-75
2022/01/28 11:16:02;;;;;;;67.93;32.63;;;6.40;99.90;;;;;;5054720;28;20039;-75
2022/01/28 11:18:28;;;;;;;76.03;37.25;;;6.40;99.90;;;;;;5060059;28;20096;-75
2022/01/28 11:20:58;;;;;;;73.05;35.40;;;6.40;99.90;;;;;;5074477;28;20107;-75
2022/01/28 11:24:05;;;;;;;66.18;35.95;;;6.40;99.90;;;;;;5074717;28;20031;-75
2022/01/28 11:27:10;;;;;;;64.75;30.00;;;6.50;99.90;;;;;;4973910;28;20494;-75
2022/01/28 11:29:36;;;;;;;56.90;26.52;;;6.70;99.90;;;;;;4973327;28;20058;-75
2022/01/28 11:32:14;;;;;;;46.58;23.52;;;6.90;99.90;;;;;;4973673;28;20035;-75
2022/01/28 11:34:58;;;;;;;46.53;21.98;;;7.10;99.90;;;;;;4973648;28;20030;-75
2022/01/28 11:37:25;;;;;;;48.45;23.75;;;7.40;99.90;;;;;;4973299;28;20042;-75
2022/01/28 11:39:50;;;;;;;52.42;25.08;;;8.00;99.90;;;;;;4972961;28;20066;-75
2022/01/28 11:42:29;;;;;;;62.53;27.73;;;8.60;99.90;;;;;;4972419;28;20058;-75
2022/01/28 11:44:56;;;;;;;45.10;23.88;;;9.10;99.90;;;;;;4972997;28;20122;-76
2022/01/28 11:47:30;;;;;;;42.83;23.40;;;9.20;97.50;;;;;;4973424;28;20031;-75
2022/01/28 11:50:17;;;;;;;44.55;21.67;;;9.00;96.30;;;;;;4973711;28;20042;-75
2022/01/28 11:52:47;;;;;;;49.05;25.25;;;8.90;96.10;;;;;;4973418;28;20156;-75
2022/01/28 11:55:24;;;;;;;54.17;25.92;;;8.60;97.60;;;;;;4973565;28;20458;-74
2022/01/28 11:57:57;;;;;;;70.82;34.55;;;8.50;98.00;;;;;;4972870;28;20421;-75
2022/01/28 12:00:34;;;;;;;61.97;29.80;;;8.50;99.20;;;;;;4973315;28;20062;-75
2022/01/28 12:03:01;;;;;;;56.10;27.65;;;8.40;98.20;;;;;;5028273;28;20037;-75
2022/01/28 12:05:29;;;;;;;64.57;31.35;;;8.20;99.20;;;;;;5041768;28;20045;-75
2022/01/28 12:07:59;;;;;;;70.15;32.70;;;8.20;99.90;;;;;;5074066;28;20024;-75
2022/01/28 12:10:26;;;;;;;84.82;37.97;;;8.30;99.90;;;;;;5074027;28;20455;-75
2022/01/28 12:13:00;;;;;;;87.20;39.97;;;8.60;99.90;;;;;;5072951;28;20215;-75
2022/01/28 12:15:30;;;;;;;77.15;35.88;;;8.80;99.90;;;;;;5073803;28;20086;-75
2022/01/28 12:18:09;;;;;;;95.20;44.40;;;8.50;98.80;;;;;;5073951;28;20020;-75
2022/01/28 12:20:43;;;;;;;88.43;39.28;;;8.40;99.60;;;;;;5073585;28;20432;-75
2022/01/28 12:23:08;;;;;;;63.53;30.58;;;8.40;98.90;;;;;;5073921;28;20048;-75
2022/01/28 12:25:43;;;;;;;74.45;32.25;;;8.30;99.00;;;;;;5073245;28;20455;-75
2022/01/28 12:28:23;;;;;;;87.95;41.72;;;8.30;99.00;;;;;;5074003;28;20032;-75
2022/01/28 12:30:56;;;;;;;86.22;40.03;;;8.40;99.00;;;;;;5073829;28;20021;-75
2022/01/28 12:33:24;;;;;;;120.60;56.30;;;8.70;98.60;;;;;;5073752;28;20051;-75
2022/01/28 12:35:53;;;;;;;115.65;52.60;;;8.80;97.50;;;;;;5073400;28;20028;-75
2022/01/28 12:38:25;;;;;;;171.00;73.95;;;8.60;96.30;;;;;;5073774;28;20474;-75
2022/01/28 12:40:57;;;;;;;143.70;63.58;;;8.50;97.40;;;;;;5073049;28;20021;-75
2022/01/28 12:43:25;;;;;;;101.03;46.63;;;8.60;96.90;;;;;;5073578;28;20162;-75
2022/01/28 12:46:17;;;;;;;99.50;45.88;;;8.70;96.20;;;;;;5073593;28;20037;-75
2022/01/28 12:48:51;;;;;;;110.78;50.88;;;8.60;96.30;;;;;;5068550;28;20083;-75
2022/01/28 12:51:21;;;;;;;101.03;46.40;;;8.70;95.80;;;;;;5074088;28;20088;-75
2022/01/28 12:53:53;;;;;;;136.23;67.53;;;8.50;96.70;;;;;;5073264;28;20040;-75
2022/01/28 12:56:32;;;;;;;92.00;43.17;;;8.60;98.00;;;;;;5073697;28;20067;-75
2022/01/28 12:58:58;;;;;;;94.90;48.78;;;8.50;97.00;;;;;;5073571;28;20024;-75
2022/01/28 13:01:24;;;;;;;82.82;41.67;;;8.40;97.40;;;;;;5072956;28;20437;-75
2022/01/28 13:04:04;;;;;;;101.25;49.00;;;8.30;98.70;;;;;;5073459;28;20025;-75
2022/01/28 13:09:21;;;;;;;76.80;40.00;;;8.20;99.90;;;;;;5073199;28;20029;-75
2022/01/28 13:11:55;;;;;;;66.97;33.85;;;8.00;99.90;;;;;;5073456;28;20169;-75
2022/01/28 13:14:33;;;;;;;60.42;31.13;;;8.00;99.90;;;;;;5072790;28;20029;-75
2022/01/28 13:17:00;;;;;;;73.20;36.53;;;7.80;99.90;;;;;;5055464;28;20028;-75
2022/01/28 13:19:27;;;;;;;50.88;27.50;;;7.70;99.90;;;;;;5073613;28;20466;-75
2022/01/28 13:21:54;;;;;;;60.20;31.05;;;7.60;99.90;;;;;;5073084;28;20044;-75
2022/01/28 13:24:25;;;;;;;70.60;31.85;;;7.60;99.90;;;;;;5074652;28;20495;-74
2022/01/28 13:27:04;;;;;;;62.20;28.63;;;7.60;99.90;;;;;;5077137;28;20123;-75
2022/01/28 13:29:33;;;;;;;68.43;33.28;;;7.50;99.90;;;;;;5076705;28;20025;-75
2022/01/28 13:32:03;;;;;;;78.93;35.28;;;7.40;99.90;;;;;;5076865;28;20102;-75
2022/01/28 13:34:55;;;;;;;54.85;26.35;;;7.40;99.90;;;;;;5059634;28;20032;-75
2022/01/28 13:37:41;;;;;;;51.65;25.35;;;7.40;99.90;;;;;;5056928;28;20033;-74
2022/01/28 13:40:27;;;;;;;48.80;24.48;;;7.50;99.90;;;;;;5056836;28;20025;-74
2022/01/28 13:42:59;;;;;;;109.00;46.20;;;7.50;99.90;;;;;;5039356;28;20056;-75
2022/01/28 13:45:39;;;;;;;81.43;40.20;;;7.40;99.90;;;;;;5056229;28;20040;-75
2022/01/28 13:48:08;;;;;;;90.05;42.03;;;7.30;99.90;;;;;;5067495;28;20096;-75
2022/01/28 13:50:37;;;;;;;110.60;58.13;;;7.20;99.90;;;;;;5065280;28;20017;-75
2022/01/28 13:53:20;;;;;;;92.50;42.65;;;7.20;99.90;;;;;;5065328;28;20579;-75
2022/01/28 13:55:48;;;;;;;159.07;72.97;;;7.00;99.90;;;;;;5067398;28;20487;-74
2022/01/28 13:58:14;;;;;;;88.80;40.72;;;7.00;99.90;;;;;;5065111;28;20028;-75
2022/01/28 14:00:43;;;;;;;59.17;28.33;;;6.90;99.90;;;;;;5065679;28;20024;-75
2022/01/28 14:03:15;;;;;;;46.20;22.70;;;6.60;99.90;;;;;;5067099;28;20020;-74
2022/01/28 14:05:54;;;;;;;48.70;21.75;;;6.40;99.90;;;;;;5076195;28;20040;-75
2022/01/28 14:08:46;;;;;;;44.38;20.35;;;6.10;99.90;;;;;;5076215;28;20025;-75
2022/01/28 14:11:27;;;;;;;34.22;15.93;;;5.90;99.90;;;;;;5075446;28;20020;-74
2022/01/28 14:16:58;;;;;;;36.30;16.35;;;5.70;99.90;;;;;;5075296;28;20040;-74
2022/01/28 14:19:28;;;;;;;46.22;20.30;;;5.70;99.90;;;;;;5074944;28;20471;-75